sensor_id;sensor_type;location;lat;lon;timestamp;P1;durP1;ratioP1;P2;durP2;ratioP2
8488;SDS011;4281;45.772;12.852;2023-04-03T00:01:09;2.50;;;2.30;;
8488;SDS011;4281;45.772;12.852;2023-04-03T00:03:37;2.20;;;2.00;;
8488;SDS011;4281;45.772;12.852;2023-04-03T00:06:04;2.13;;;1.93;;
8488;SDS011;4281;45.772;12.852;2023-04-03T00:08:34;3.97;;;2.27;;
8488;SDS011;4281;45.772;12.852;2023-04-03T00:11:02;2.77;;;2.30;;
8488;SDS011;4281;45.772;12.852;2023-04-03T00:13:31;2.50;;;2.30;;
8488;SDS011;4281;45.772;12.852;2023-04-03T00:15:59;2.30;;;2.10;;
8488;SDS011;4281;45.772;12.852;2023-04-03T00:18:27;2.33;;;2.13;;
8488;SDS011;4281;45.772;12.852;2023-04-03T00:20:55;2.00;;;1.90;;
8488;SDS011;4281;45.772;12.852;2023-04-03T00:23:23;2.37;;;2.17;;
8488;SDS011;4281;45.772;12.852;2023-04-03T00:25:53;2.40;;;2.20;;
8488;SDS011;4281;45.772;12.852;2023-04-03T00:28:21;2.50;;;2.30;;
8488;SDS011;4281;45.772;12.852;2023-04-03T00:30:49;2.30;;;2.10;;
8488;SDS011;4281;45.772;12.852;2023-04-03T00:33:17;2.20;;;2.00;;
8488;SDS011;4281;45.772;12.852;2023-04-03T00:35:47;2.00;;;1.80;;
8488;SDS011;4281;45.772;12.852;2023-04-03T00:38:16;2.30;;;2.10;;
8488;SDS011;4281;45.772;12.852;2023-04-03T00:40:44;2.13;;;1.93;;
8488;SDS011;4281;45.772;12.852;2023-04-03T00:43:15;1.90;;;1.70;;
8488;SDS011;4281;45.772;12.852;2023-04-03T00:45:44;1.83;;;1.70;;
8488;SDS011;4281;45.772;12.852;2023-04-03T00:48:13;1.97;;;1.77;;
8488;SDS011;4281;45.772;12.852;2023-04-03T00:50:44;2.10;;;1.90;;
8488;SDS011;4281;45.772;12.852;2023-04-03T00:53:13;2.00;;;1.80;;
8488;SDS011;4281;45.772;12.852;2023-04-03T00:55:44;2.23;;;1.90;;
8488;SDS011;4281;45.772;12.852;2023-04-03T00:58:16;2.20;;;2.00;;
8488;SDS011;4281;45.772;12.852;2023-04-03T01:00:46;1.80;;;1.70;;
8488;SDS011;4281;45.772;12.852;2023-04-03T01:03:17;2.50;;;2.30;;
8488;SDS011;4281;45.772;12.852;2023-04-03T01:05:46;2.87;;;1.90;;
8488;SDS011;4281;45.772;12.852;2023-04-03T01:08:14;2.23;;;1.93;;
8488;SDS011;4281;45.772;12.852;2023-04-03T01:10:42;2.03;;;1.93;;
8488;SDS011;4281;45.772;12.852;2023-04-03T01:13:22;2.83;;;2.53;;
8488;SDS011;4281;45.772;12.852;2023-04-03T01:15:52;2.30;;;2.00;;
8488;SDS011;4281;45.772;12.852;2023-04-03T01:18:20;2.33;;;2.13;;
8488;SDS011;4281;45.772;12.852;2023-04-03T01:23:46;2.10;;;1.90;;
8488;SDS011;4281;45.772;12.852;2023-04-03T01:26:18;2.60;;;2.40;;
8488;SDS011;4281;45.772;12.852;2023-04-03T01:28:48;2.13;;;1.93;;
8488;SDS011;4281;45.772;12.852;2023-04-03T01:31:18;2.30;;;2.10;;
8488;SDS011;4281;45.772;12.852;2023-04-03T01:33:51;2.83;;;1.90;;
8488;SDS011;4281;45.772;12.852;2023-04-03T01:36:20;2.17;;;1.97;;
8488;SDS011;4281;45.772;12.852;2023-04-03T01:38:49;3.07;;;2.03;;
8488;SDS011;4281;45.772;12.852;2023-04-03T01:41:17;2.00;;;1.80;;
8488;SDS011;4281;45.772;12.852;2023-04-03T01:43:45;2.60;;;2.20;;
8488;SDS011;4281;45.772;12.852;2023-04-03T01:46:12;2.17;;;1.97;;
8488;SDS011;4281;45.772;12.852;2023-04-03T01:48:41;2.30;;;2.10;;
8488;SDS011;4281;45.772;12.852;2023-04-03T01:51:10;2.27;;;2.07;;
8488;SDS011;4281;45.772;12.852;2023-04-03T01:53:38;2.53;;;2.10;;
8488;SDS011;4281;45.772;12.852;2023-04-03T01:56:08;2.20;;;2.00;;
8488;SDS011;4281;45.772;12.852;2023-04-03T01:58:36;2.20;;;2.00;;
8488;SDS011;4281;45.772;12.852;2023-04-03T02:01:04;2.27;;;2.07;;
8488;SDS011;4281;45.772;12.852;2023-04-03T02:03:32;2.10;;;1.90;;
8488;SDS011;4281;45.772;12.852;2023-04-03T02:06:00;2.27;;;2.10;;
8488;SDS011;4281;45.772;12.852;2023-04-03T02:08:30;2.30;;;2.10;;
8488;SDS011;4281;45.772;12.852;2023-04-03T02:10:57;1.73;;;1.63;;
8488;SDS011;4281;45.772;12.852;2023-04-03T02:13:25;2.00;;;1.90;;
8488;SDS011;4281;45.772;12.852;2023-04-03T02:15:53;2.20;;;2.00;;
8488;SDS011;4281;45.772;12.852;2023-04-03T02:18:21;2.33;;;2.13;;
8488;SDS011;4281;45.772;12.852;2023-04-03T02:20:48;2.30;;;2.10;;
8488;SDS011;4281;45.772;12.852;2023-04-03T02:23:16;2.47;;;2.27;;
8488;SDS011;4281;45.772;12.852;2023-04-03T02:25:45;2.40;;;2.20;;
8488;SDS011;4281;45.772;12.852;2023-04-03T02:28:15;2.27;;;2.07;;
8488;SDS011;4281;45.772;12.852;2023-04-03T02:30:43;2.47;;;2.27;;
8488;SDS011;4281;45.772;12.852;2023-04-03T02:33:10;3.53;;;2.30;;
8488;SDS011;4281;45.772;12.852;2023-04-03T02:35:38;3.50;;;2.30;;
8488;SDS011;4281;45.772;12.852;2023-04-03T02:38:06;2.50;;;2.30;;
8488;SDS011;4281;45.772;12.852;2023-04-03T02:40:34;2.70;;;2.00;;
8488;SDS011;4281;45.772;12.852;2023-04-03T02:43:03;2.07;;;1.87;;
8488;SDS011;4281;45.772;12.852;2023-04-03T02:45:31;2.30;;;2.10;;
8488;SDS011;4281;45.772;12.852;2023-04-03T02:47:59;2.53;;;1.83;;
8488;SDS011;4281;45.772;12.852;2023-04-03T02:50:27;1.80;;;1.70;;
8488;SDS011;4281;45.772;12.852;2023-04-03T02:52:55;2.20;;;2.00;;
8488;SDS011;4281;45.772;12.852;2023-04-03T02:55:22;1.97;;;1.80;;
8488;SDS011;4281;45.772;12.852;2023-04-03T02:57:50;2.10;;;1.90;;
8488;SDS011;4281;45.772;12.852;2023-04-03T03:00:20;1.80;;;1.70;;
8488;SDS011;4281;45.772;12.852;2023-04-03T03:02:48;1.53;;;1.30;;
8488;SDS011;4281;45.772;12.852;2023-04-03T03:05:16;1.20;;;1.10;;
8488;SDS011;4281;45.772;12.852;2023-04-03T03:07:44;1.20;;;1.10;;
8488;SDS011;4281;45.772;12.852;2023-04-03T03:10:12;1.20;;;1.10;;
8488;SDS011;4281;45.772;12.852;2023-04-03T03:12:40;1.40;;;1.30;;
8488;SDS011;4281;45.772;12.852;2023-04-03T03:15:08;2.17;;;1.10;;
8488;SDS011;4281;45.772;12.852;2023-04-03T03:17:37;0.90;;;0.90;;
8488;SDS011;4281;45.772;12.852;2023-04-03T03:20:06;1.17;;;1.07;;
8488;SDS011;4281;45.772;12.852;2023-04-03T03:22:35;1.20;;;1.10;;
8488;SDS011;4281;45.772;12.852;2023-04-03T03:25:03;1.00;;;0.90;;
8488;SDS011;4281;45.772;12.852;2023-04-03T03:27:32;1.10;;;1.00;;
8488;SDS011;4281;45.772;12.852;2023-04-03T03:30:00;0.90;;;0.90;;
8488;SDS011;4281;45.772;12.852;2023-04-03T03:32:27;1.30;;;1.20;;
8488;SDS011;4281;45.772;12.852;2023-04-03T03:34:57;1.50;;;1.40;;
8488;SDS011;4281;45.772;12.852;2023-04-03T03:37:25;1.40;;;1.30;;
8488;SDS011;4281;45.772;12.852;2023-04-03T03:39:53;1.60;;;1.50;;
8488;SDS011;4281;45.772;12.852;2023-04-03T03:42:21;1.97;;;1.80;;
8488;SDS011;4281;45.772;12.852;2023-04-03T03:44:48;2.00;;;1.80;;
8488;SDS011;4281;45.772;12.852;2023-04-03T03:47:18;1.97;;;1.80;;
8488;SDS011;4281;45.772;12.852;2023-04-03T03:49:46;1.97;;;1.80;;
8488;SDS011;4281;45.772;12.852;2023-04-03T03:52:15;2.03;;;1.90;;
8488;SDS011;4281;45.772;12.852;2023-04-03T03:54:43;1.70;;;1.60;;
8488;SDS011;4281;45.772;12.852;2023-04-03T03:57:11;1.90;;;1.70;;
8488;SDS011;4281;45.772;12.852;2023-04-03T03:59:39;1.90;;;1.80;;
8488;SDS011;4281;45.772;12.852;2023-04-03T04:02:08;2.10;;;1.90;;
8488;SDS011;4281;45.772;12.852;2023-04-03T04:04:36;2.40;;;2.20;;
8488;SDS011;4281;45.772;12.852;2023-04-03T04:07:03;2.27;;;2.07;;
8488;SDS011;4281;45.772;12.852;2023-04-03T04:09:33;2.20;;;2.00;;
8488;SDS011;4281;45.772;12.852;2023-04-03T04:12:00;2.00;;;1.90;;
8488;SDS011;4281;45.772;12.852;2023-04-03T04:14:28;2.37;;;2.17;;
8488;SDS011;4281;45.772;12.852;2023-04-03T04:16:56;2.10;;;1.93;;
8488;SDS011;4281;45.772;12.852;2023-04-03T04:19:24;2.60;;;2.40;;
8488;SDS011;4281;45.772;12.852;2023-04-03T04:21:52;3.37;;;2.50;;
8488;SDS011;4281;45.772;12.852;2023-04-03T04:24:19;2.40;;;2.20;;
8488;SDS011;4281;45.772;12.852;2023-04-03T04:26:50;2.47;;;2.27;;
8488;SDS011;4281;45.772;12.852;2023-04-03T04:29:18;2.37;;;2.17;;
8488;SDS011;4281;45.772;12.852;2023-04-03T04:31:45;3.70;;;2.40;;
8488;SDS011;4281;45.772;12.852;2023-04-03T04:34:13;2.10;;;2.00;;
8488;SDS011;4281;45.772;12.852;2023-04-03T04:36:41;2.00;;;1.80;;
8488;SDS011;4281;45.772;12.852;2023-04-03T04:39:09;2.20;;;2.00;;
8488;SDS011;4281;45.772;12.852;2023-04-03T04:41:37;2.00;;;1.90;;
8488;SDS011;4281;45.772;12.852;2023-04-03T04:44:06;2.07;;;1.83;;
8488;SDS011;4281;45.772;12.852;2023-04-03T04:46:34;1.93;;;1.80;;
8488;SDS011;4281;45.772;12.852;2023-04-03T04:49:02;2.43;;;2.23;;
8488;SDS011;4281;45.772;12.852;2023-04-03T04:51:30;3.90;;;2.17;;
8488;SDS011;4281;45.772;12.852;2023-04-03T04:54:13;2.10;;;2.00;;
8488;SDS011;4281;45.772;12.852;2023-04-03T04:56:41;2.33;;;1.90;;
8488;SDS011;4281;45.772;12.852;2023-04-03T04:59:11;3.13;;;2.30;;
8488;SDS011;4281;45.772;12.852;2023-04-03T05:01:38;2.30;;;2.10;;
8488;SDS011;4281;45.772;12.852;2023-04-03T05:04:06;2.30;;;2.10;;
8488;SDS011;4281;45.772;12.852;2023-04-03T05:06:36;2.30;;;2.10;;
8488;SDS011;4281;45.772;12.852;2023-04-03T05:09:03;2.80;;;2.30;;
8488;SDS011;4281;45.772;12.852;2023-04-03T05:11:31;2.40;;;2.20;;
8488;SDS011;4281;45.772;12.852;2023-04-03T05:13:59;2.20;;;2.00;;
8488;SDS011;4281;45.772;12.852;2023-04-03T05:16:31;2.40;;;2.17;;
8488;SDS011;4281;45.772;12.852;2023-04-03T05:18:59;1.83;;;1.73;;
8488;SDS011;4281;45.772;12.852;2023-04-03T05:21:26;1.60;;;1.50;;
8488;SDS011;4281;45.772;12.852;2023-04-03T05:23:58;1.53;;;1.43;;
8488;SDS011;4281;45.772;12.852;2023-04-03T05:26:29;2.37;;;1.50;;
8488;SDS011;4281;45.772;12.852;2023-04-03T05:28:57;2.70;;;1.40;;
8488;SDS011;4281;45.772;12.852;2023-04-03T05:31:25;1.57;;;1.43;;
8488;SDS011;4281;45.772;12.852;2023-04-03T05:33:57;1.57;;;1.47;;
8488;SDS011;4281;45.772;12.852;2023-04-03T05:36:25;1.60;;;1.50;;
8488;SDS011;4281;45.772;12.852;2023-04-03T05:38:53;1.50;;;1.40;;
8488;SDS011;4281;45.772;12.852;2023-04-03T05:41:22;1.60;;;1.50;;
8488;SDS011;4281;45.772;12.852;2023-04-03T05:43:51;1.70;;;1.60;;
8488;SDS011;4281;45.772;12.852;2023-04-03T05:46:19;1.53;;;1.43;;
8488;SDS011;4281;45.772;12.852;2023-04-03T05:48:48;1.60;;;1.50;;
8488;SDS011;4281;45.772;12.852;2023-04-03T05:51:18;1.93;;;1.70;;
8488;SDS011;4281;45.772;12.852;2023-04-03T05:53:47;1.73;;;1.50;;
8488;SDS011;4281;45.772;12.852;2023-04-03T05:56:15;1.80;;;1.70;;
8488;SDS011;4281;45.772;12.852;2023-04-03T05:58:43;3.07;;;1.47;;
8488;SDS011;4281;45.772;12.852;2023-04-03T06:01:11;1.60;;;1.50;;
8488;SDS011;4281;45.772;12.852;2023-04-03T06:03:39;1.70;;;1.60;;
8488;SDS011;4281;45.772;12.852;2023-04-03T06:06:07;1.70;;;1.60;;
8488;SDS011;4281;45.772;12.852;2023-04-03T06:08:37;1.33;;;1.23;;
8488;SDS011;4281;45.772;12.852;2023-04-03T06:11:04;2.40;;;1.50;;
8488;SDS011;4281;45.772;12.852;2023-04-03T06:13:32;1.70;;;1.60;;
8488;SDS011;4281;45.772;12.852;2023-04-03T06:16:01;2.10;;;1.73;;
8488;SDS011;4281;45.772;12.852;2023-04-03T06:18:30;1.43;;;1.33;;
8488;SDS011;4281;45.772;12.852;2023-04-03T06:20:57;1.50;;;1.40;;
8488;SDS011;4281;45.772;12.852;2023-04-03T06:23:27;1.30;;;1.20;;
8488;SDS011;4281;45.772;12.852;2023-04-03T06:25:56;1.63;;;1.53;;
8488;SDS011;4281;45.772;12.852;2023-04-03T06:28:25;1.50;;;1.40;;
8488;SDS011;4281;45.772;12.852;2023-04-03T06:30:53;1.33;;;1.23;;
8488;SDS011;4281;45.772;12.852;2023-04-03T06:33:21;1.30;;;1.20;;
8488;SDS011;4281;45.772;12.852;2023-04-03T06:35:49;1.67;;;1.30;;
8488;SDS011;4281;45.772;12.852;2023-04-03T06:38:17;1.60;;;1.30;;
8488;SDS011;4281;45.772;12.852;2023-04-03T06:40:45;1.50;;;1.40;;
8488;SDS011;4281;45.772;12.852;2023-04-03T06:43:14;1.30;;;1.20;;
8488;SDS011;4281;45.772;12.852;2023-04-03T06:45:42;1.23;;;1.13;;
8488;SDS011;4281;45.772;12.852;2023-04-03T06:48:10;1.40;;;1.30;;
8488;SDS011;4281;45.772;12.852;2023-04-03T06:50:38;1.50;;;1.07;;
8488;SDS011;4281;45.772;12.852;2023-04-03T06:53:06;1.43;;;1.33;;
8488;SDS011;4281;45.772;12.852;2023-04-03T06:55:34;1.40;;;1.30;;
8488;SDS011;4281;45.772;12.852;2023-04-03T06:58:02;1.30;;;1.20;;
8488;SDS011;4281;45.772;12.852;2023-04-03T07:00:32;1.30;;;1.20;;
8488;SDS011;4281;45.772;12.852;2023-04-03T07:03:00;1.50;;;1.40;;
8488;SDS011;4281;45.772;12.852;2023-04-03T07:05:28;1.40;;;1.30;;
8488;SDS011;4281;45.772;12.852;2023-04-03T07:07:55;1.30;;;1.20;;
8488;SDS011;4281;45.772;12.852;2023-04-03T07:10:23;2.60;;;1.20;;
8488;SDS011;4281;45.772;12.852;2023-04-03T07:12:51;1.00;;;1.00;;
8488;SDS011;4281;45.772;12.852;2023-04-03T07:15:19;1.20;;;1.10;;
8488;SDS011;4281;45.772;12.852;2023-04-03T07:17:48;1.30;;;1.20;;
8488;SDS011;4281;45.772;12.852;2023-04-03T07:20:16;1.30;;;1.20;;
8488;SDS011;4281;45.772;12.852;2023-04-03T07:22:44;1.20;;;1.10;;
8488;SDS011;4281;45.772;12.852;2023-04-03T07:25:12;1.20;;;1.10;;
8488;SDS011;4281;45.772;12.852;2023-04-03T07:27:39;1.13;;;1.03;;
8488;SDS011;4281;45.772;12.852;2023-04-03T07:30:08;1.40;;;1.30;;
8488;SDS011;4281;45.772;12.852;2023-04-03T07:32:36;1.30;;;1.20;;
8488;SDS011;4281;45.772;12.852;2023-04-03T07:35:05;2.00;;;1.57;;
8488;SDS011;4281;45.772;12.852;2023-04-03T07:37:33;1.60;;;1.30;;
8488;SDS011;4281;45.772;12.852;2023-04-03T07:40:02;1.33;;;1.23;;
8488;SDS011;4281;45.772;12.852;2023-04-03T07:42:30;1.73;;;1.40;;
8488;SDS011;4281;45.772;12.852;2023-04-03T07:44:58;1.40;;;1.30;;
8488;SDS011;4281;45.772;12.852;2023-04-03T07:47:26;1.23;;;1.10;;
8488;SDS011;4281;45.772;12.852;2023-04-03T07:49:54;1.70;;;1.30;;
8488;SDS011;4281;45.772;12.852;2023-04-03T07:52:24;1.50;;;1.40;;
8488;SDS011;4281;45.772;12.852;2023-04-03T07:54:52;2.10;;;1.30;;
8488;SDS011;4281;45.772;12.852;2023-04-03T07:57:22;1.53;;;1.20;;
8488;SDS011;4281;45.772;12.852;2023-04-03T07:59:50;1.63;;;1.20;;
8488;SDS011;4281;45.772;12.852;2023-04-03T08:02:18;2.03;;;1.30;;
8488;SDS011;4281;45.772;12.852;2023-04-03T08:04:46;1.17;;;1.07;;
8488;SDS011;4281;45.772;12.852;2023-04-03T08:07:14;2.03;;;1.27;;
8488;SDS011;4281;45.772;12.852;2023-04-03T08:09:43;1.30;;;1.20;;
8488;SDS011;4281;45.772;12.852;2023-04-03T08:12:11;1.27;;;1.10;;
8488;SDS011;4281;45.772;12.852;2023-04-03T08:14:40;1.00;;;0.90;;
8488;SDS011;4281;45.772;12.852;2023-04-03T08:17:08;1.50;;;1.30;;
8488;SDS011;4281;45.772;12.852;2023-04-03T08:19:38;2.20;;;1.50;;
8488;SDS011;4281;45.772;12.852;2023-04-03T08:22:06;1.40;;;1.07;;
8488;SDS011;4281;45.772;12.852;2023-04-03T08:24:34;1.33;;;1.13;;
8488;SDS011;4281;45.772;12.852;2023-04-03T08:27:05;1.40;;;1.30;;
8488;SDS011;4281;45.772;12.852;2023-04-03T08:29:33;1.20;;;1.10;;
8488;SDS011;4281;45.772;12.852;2023-04-03T08:32:04;1.37;;;1.27;;
8488;SDS011;4281;45.772;12.852;2023-04-03T08:34:32;1.23;;;1.13;;
8488;SDS011;4281;45.772;12.852;2023-04-03T08:37:01;1.97;;;1.10;;
8488;SDS011;4281;45.772;12.852;2023-04-03T08:39:28;1.07;;;0.93;;
8488;SDS011;4281;45.772;12.852;2023-04-03T08:41:57;1.20;;;1.10;;
8488;SDS011;4281;45.772;12.852;2023-04-03T08:44:31;1.33;;;1.23;;
8488;SDS011;4281;45.772;12.852;2023-04-03T08:47:10;0.97;;;0.97;;
8488;SDS011;4281;45.772;12.852;2023-04-03T08:49:40;1.00;;;1.00;;
8488;SDS011;4281;45.772;12.852;2023-04-03T08:52:15;1.33;;;1.20;;
8488;SDS011;4281;45.772;12.852;2023-04-03T08:54:48;2.10;;;1.20;;
8488;SDS011;4281;45.772;12.852;2023-04-03T08:57:18;1.13;;;1.03;;
8488;SDS011;4281;45.772;12.852;2023-04-03T08:59:52;1.10;;;1.00;;
8488;SDS011;4281;45.772;12.852;2023-04-03T09:02:24;1.93;;;1.10;;
8488;SDS011;4281;45.772;12.852;2023-04-03T09:04:54;1.00;;;1.00;;
8488;SDS011;4281;45.772;12.852;2023-04-03T09:07:22;1.37;;;1.13;;
8488;SDS011;4281;45.772;12.852;2023-04-03T09:10:00;1.00;;;0.90;;
8488;SDS011;4281;45.772;12.852;2023-04-03T09:12:32;0.90;;;0.90;;
8488;SDS011;4281;45.772;12.852;2023-04-03T09:15:05;0.83;;;0.83;;
8488;SDS011;4281;45.772;12.852;2023-04-03T09:17:41;1.00;;;0.90;;
8488;SDS011;4281;45.772;12.852;2023-04-03T09:20:15;1.03;;;0.90;;
8488;SDS011;4281;45.772;12.852;2023-04-03T09:22:47;0.90;;;0.90;;
8488;SDS011;4281;45.772;12.852;2023-04-03T09:25:19;0.87;;;0.87;;
8488;SDS011;4281;45.772;12.852;2023-04-03T09:27:48;0.97;;;0.80;;
8488;SDS011;4281;45.772;12.852;2023-04-03T09:30:19;1.00;;;0.70;;
8488;SDS011;4281;45.772;12.852;2023-04-03T09:32:50;0.70;;;0.70;;
8488;SDS011;4281;45.772;12.852;2023-04-03T09:35:20;1.47;;;1.10;;
8488;SDS011;4281;45.772;12.852;2023-04-03T09:38:17;1.63;;;1.00;;
8488;SDS011;4281;45.772;12.852;2023-04-03T09:40:47;1.63;;;0.80;;
8488;SDS011;4281;45.772;12.852;2023-04-03T09:43:21;1.00;;;0.87;;
8488;SDS011;4281;45.772;12.852;2023-04-03T09:45:52;1.20;;;1.10;;
8488;SDS011;4281;45.772;12.852;2023-04-03T09:48:21;1.63;;;0.90;;
8488;SDS011;4281;45.772;12.852;2023-04-03T09:50:54;1.13;;;0.70;;
8488;SDS011;4281;45.772;12.852;2023-04-03T09:53:32;0.80;;;0.80;;
8488;SDS011;4281;45.772;12.852;2023-04-03T09:56:03;1.33;;;0.80;;
8488;SDS011;4281;45.772;12.852;2023-04-03T09:58:38;0.80;;;0.80;;
8488;SDS011;4281;45.772;12.852;2023-04-03T10:01:23;1.10;;;1.00;;
8488;SDS011;4281;45.772;12.852;2023-04-03T10:04:03;1.10;;;1.00;;
8488;SDS011;4281;45.772;12.852;2023-04-03T10:06:35;0.90;;;0.90;;
8488;SDS011;4281;45.772;12.852;2023-04-03T10:09:13;0.90;;;0.90;;
8488;SDS011;4281;45.772;12.852;2023-04-03T10:11:56;0.87;;;0.87;;
8488;SDS011;4281;45.772;12.852;2023-04-03T10:14:26;1.10;;;0.80;;
8488;SDS011;4281;45.772;12.852;2023-04-03T10:16:59;0.73;;;0.73;;
8488;SDS011;4281;45.772;12.852;2023-04-03T10:19:39;0.90;;;0.90;;
8488;SDS011;4281;45.772;12.852;2023-04-03T10:22:12;1.10;;;1.00;;
8488;SDS011;4281;45.772;12.852;2023-04-03T10:24:51;0.80;;;0.80;;
8488;SDS011;4281;45.772;12.852;2023-04-03T10:27:23;0.90;;;0.80;;
8488;SDS011;4281;45.772;12.852;2023-04-03T10:29:59;1.03;;;0.80;;
8488;SDS011;4281;45.772;12.852;2023-04-03T10:32:39;0.70;;;0.70;;
8488;SDS011;4281;45.772;12.852;2023-04-03T10:35:16;0.87;;;0.80;;
8488;SDS011;4281;45.772;12.852;2023-04-03T10:37:50;1.67;;;0.73;;
8488;SDS011;4281;45.772;12.852;2023-04-03T10:40:28;0.90;;;0.90;;
8488;SDS011;4281;45.772;12.852;2023-04-03T10:43:00;0.90;;;0.90;;
8488;SDS011;4281;45.772;12.852;2023-04-03T10:45:33;0.90;;;0.90;;
8488;SDS011;4281;45.772;12.852;2023-04-03T10:48:18;1.20;;;0.90;;
8488;SDS011;4281;45.772;12.852;2023-04-03T10:50:58;0.97;;;0.87;;
8488;SDS011;4281;45.772;12.852;2023-04-03T10:53:29;1.43;;;0.90;;
8488;SDS011;4281;45.772;12.852;2023-04-03T10:56:02;1.77;;;0.90;;
8488;SDS011;4281;45.772;12.852;2023-04-03T10:58:34;1.10;;;1.00;;
8488;SDS011;4281;45.772;12.852;2023-04-03T11:01:06;1.00;;;0.90;;
8488;SDS011;4281;45.772;12.852;2023-04-03T11:03:38;1.57;;;0.80;;
8488;SDS011;4281;45.772;12.852;2023-04-03T11:06:09;1.30;;;1.00;;
8488;SDS011;4281;45.772;12.852;2023-04-03T11:08:38;0.97;;;0.93;;
8488;SDS011;4281;45.772;12.852;2023-04-03T11:11:11;0.70;;;0.70;;
8488;SDS011;4281;45.772;12.852;2023-04-03T11:13:41;1.03;;;0.93;;
8488;SDS011;4281;45.772;12.852;2023-04-03T11:16:12;1.10;;;1.00;;
8488;SDS011;4281;45.772;12.852;2023-04-03T11:18:46;0.97;;;0.87;;
8488;SDS011;4281;45.772;12.852;2023-04-03T11:21:17;1.53;;;1.20;;
8488;SDS011;4281;45.772;12.852;2023-04-03T11:23:48;1.10;;;1.00;;
8488;SDS011;4281;45.772;12.852;2023-04-03T11:26:17;1.10;;;1.00;;
8488;SDS011;4281;45.772;12.852;2023-04-03T11:28:51;0.90;;;0.90;;
8488;SDS011;4281;45.772;12.852;2023-04-03T11:31:26;0.90;;;0.90;;
8488;SDS011;4281;45.772;12.852;2023-04-03T11:34:06;0.90;;;0.90;;
8488;SDS011;4281;45.772;12.852;2023-04-03T11:36:40;1.93;;;1.00;;
8488;SDS011;4281;45.772;12.852;2023-04-03T11:39:16;1.60;;;0.83;;
8488;SDS011;4281;45.772;12.852;2023-04-03T11:41:48;1.10;;;1.00;;
8488;SDS011;4281;45.772;12.852;2023-04-03T11:44:28;1.00;;;0.90;;
8488;SDS011;4281;45.772;12.852;2023-04-03T11:47:00;1.07;;;1.00;;
8488;SDS011;4281;45.772;12.852;2023-04-03T11:55:53;1.13;;;1.00;;
8488;SDS011;4281;45.772;12.852;2023-04-03T11:58:23;1.90;;;1.20;;
8488;SDS011;4281;45.772;12.852;2023-04-03T12:01:08;1.90;;;1.00;;
8488;SDS011;4281;45.772;12.852;2023-04-03T12:09:29;1.90;;;1.00;;
8488;SDS011;4281;45.772;12.852;2023-04-03T12:12:01;1.00;;;1.00;;
8488;SDS011;4281;45.772;12.852;2023-04-03T12:14:51;1.07;;;0.97;;
8488;SDS011;4281;45.772;12.852;2023-04-03T12:17:20;1.07;;;0.97;;
8488;SDS011;4281;45.772;12.852;2023-04-03T12:19:51;1.17;;;0.90;;
8488;SDS011;4281;45.772;12.852;2023-04-03T12:22:19;1.70;;;1.20;;
8488;SDS011;4281;45.772;12.852;2023-04-03T12:24:49;0.80;;;0.80;;
8488;SDS011;4281;45.772;12.852;2023-04-03T12:30:06;1.43;;;0.90;;
8488;SDS011;4281;45.772;12.852;2023-04-03T12:32:48;1.90;;;0.80;;
8488;SDS011;4281;45.772;12.852;2023-04-03T12:35:38;1.00;;;1.00;;
8488;SDS011;4281;45.772;12.852;2023-04-03T12:41:15;1.90;;;0.87;;
8488;SDS011;4281;45.772;12.852;2023-04-03T12:43:53;1.13;;;1.00;;
8488;SDS011;4281;45.772;12.852;2023-04-03T12:46:41;0.90;;;0.90;;
8488;SDS011;4281;45.772;12.852;2023-04-03T12:49:14;1.07;;;1.00;;
8488;SDS011;4281;45.772;12.852;2023-04-03T12:51:49;2.50;;;0.80;;
8488;SDS011;4281;45.772;12.852;2023-04-03T12:54:18;2.57;;;0.90;;
8488;SDS011;4281;45.772;12.852;2023-04-03T12:56:48;1.80;;;1.00;;
8488;SDS011;4281;45.772;12.852;2023-04-03T12:59:18;1.67;;;1.10;;
8488;SDS011;4281;45.772;12.852;2023-04-03T13:01:54;1.17;;;1.00;;
8488;SDS011;4281;45.772;12.852;2023-04-03T13:04:23;1.00;;;0.90;;
8488;SDS011;4281;45.772;12.852;2023-04-03T13:06:51;1.07;;;0.90;;
8488;SDS011;4281;45.772;12.852;2023-04-03T13:09:19;0.70;;;0.70;;
8488;SDS011;4281;45.772;12.852;2023-04-03T13:11:49;0.80;;;0.80;;
8488;SDS011;4281;45.772;12.852;2023-04-03T13:14:20;1.00;;;0.90;;
8488;SDS011;4281;45.772;12.852;2023-04-03T13:16:58;1.07;;;0.97;;
8488;SDS011;4281;45.772;12.852;2023-04-03T13:19:28;4.50;;;1.10;;
8488;SDS011;4281;45.772;12.852;2023-04-03T13:21:58;1.83;;;0.80;;
8488;SDS011;4281;45.772;12.852;2023-04-03T13:24:27;2.70;;;1.10;;
8488;SDS011;4281;45.772;12.852;2023-04-03T13:26:56;1.67;;;1.10;;
8488;SDS011;4281;45.772;12.852;2023-04-03T13:29:26;1.27;;;1.17;;
8488;SDS011;4281;45.772;12.852;2023-04-03T13:31:57;1.33;;;1.10;;
8488;SDS011;4281;45.772;12.852;2023-04-03T13:34:26;1.07;;;0.97;;
8488;SDS011;4281;45.772;12.852;2023-04-03T13:36:55;1.00;;;0.80;;
8488;SDS011;4281;45.772;12.852;2023-04-03T13:39:27;1.53;;;0.80;;
8488;SDS011;4281;45.772;12.852;2023-04-03T13:41:56;2.33;;;1.00;;
8488;SDS011;4281;45.772;12.852;2023-04-03T13:44:33;1.27;;;0.93;;
8488;SDS011;4281;45.772;12.852;2023-04-03T13:47:16;1.27;;;0.90;;
8488;SDS011;4281;45.772;12.852;2023-04-03T13:49:46;0.83;;;0.80;;
8488;SDS011;4281;45.772;12.852;2023-04-03T13:52:27;1.00;;;0.90;;
8488;SDS011;4281;45.772;12.852;2023-04-03T13:54:58;1.03;;;0.90;;
8488;SDS011;4281;45.772;12.852;2023-04-03T13:57:28;0.87;;;0.80;;
8488;SDS011;4281;45.772;12.852;2023-04-03T13:59:57;0.80;;;0.80;;
8488;SDS011;4281;45.772;12.852;2023-04-03T14:02:30;0.93;;;0.70;;
8488;SDS011;4281;45.772;12.852;2023-04-03T14:05:00;0.80;;;0.80;;
8488;SDS011;4281;45.772;12.852;2023-04-03T14:07:30;0.90;;;0.90;;
8488;SDS011;4281;45.772;12.852;2023-04-03T14:09:58;0.80;;;0.80;;
8488;SDS011;4281;45.772;12.852;2023-04-03T14:12:27;0.80;;;0.80;;
8488;SDS011;4281;45.772;12.852;2023-04-03T14:14:59;1.87;;;0.90;;
8488;SDS011;4281;45.772;12.852;2023-04-03T14:17:31;1.83;;;0.87;;
8488;SDS011;4281;45.772;12.852;2023-04-03T14:19:59;1.67;;;0.90;;
8488;SDS011;4281;45.772;12.852;2023-04-03T14:22:29;1.10;;;0.90;;
8488;SDS011;4281;45.772;12.852;2023-04-03T14:24:58;0.70;;;0.70;;
8488;SDS011;4281;45.772;12.852;2023-04-03T14:27:27;2.70;;;0.80;;
8488;SDS011;4281;45.772;12.852;2023-04-03T14:29:56;1.47;;;0.90;;
8488;SDS011;4281;45.772;12.852;2023-04-03T14:32:26;1.10;;;0.77;;
8488;SDS011;4281;45.772;12.852;2023-04-03T14:34:54;1.30;;;1.00;;
8488;SDS011;4281;45.772;12.852;2023-04-03T14:37:24;1.20;;;0.90;;
8488;SDS011;4281;45.772;12.852;2023-04-03T14:39:55;2.00;;;0.90;;
8488;SDS011;4281;45.772;12.852;2023-04-03T14:42:25;1.00;;;0.90;;
8488;SDS011;4281;45.772;12.852;2023-04-03T14:44:54;1.63;;;0.90;;
8488;SDS011;4281;45.772;12.852;2023-04-03T14:47:24;2.57;;;0.93;;
8488;SDS011;4281;45.772;12.852;2023-04-03T14:49:57;1.37;;;1.00;;
8488;SDS011;4281;45.772;12.852;2023-04-03T14:52:27;1.00;;;0.80;;
8488;SDS011;4281;45.772;12.852;2023-04-03T14:54:57;1.00;;;0.80;;
8488;SDS011;4281;45.772;12.852;2023-04-03T14:57:25;0.70;;;0.70;;
8488;SDS011;4281;45.772;12.852;2023-04-03T14:59:54;0.80;;;0.80;;
8488;SDS011;4281;45.772;12.852;2023-04-03T15:02:27;1.20;;;0.70;;
8488;SDS011;4281;45.772;12.852;2023-04-03T15:04:57;1.10;;;1.00;;
8488;SDS011;4281;45.772;12.852;2023-04-03T15:07:26;0.90;;;0.87;;
8488;SDS011;4281;45.772;12.852;2023-04-03T15:09:55;3.03;;;0.93;;
8488;SDS011;4281;45.772;12.852;2023-04-03T15:12:23;1.20;;;0.80;;
8488;SDS011;4281;45.772;12.852;2023-04-03T15:14:51;1.10;;;0.93;;
8488;SDS011;4281;45.772;12.852;2023-04-03T15:17:30;1.10;;;1.00;;
8488;SDS011;4281;45.772;12.852;2023-04-03T15:19:58;1.00;;;0.73;;
8488;SDS011;4281;45.772;12.852;2023-04-03T15:22:25;1.23;;;1.00;;
8488;SDS011;4281;45.772;12.852;2023-04-03T15:24:53;1.97;;;1.07;;
8488;SDS011;4281;45.772;12.852;2023-04-03T15:27:21;1.07;;;0.97;;
8488;SDS011;4281;45.772;12.852;2023-04-03T15:29:49;1.53;;;0.80;;
8488;SDS011;4281;45.772;12.852;2023-04-03T15:32:17;1.43;;;0.90;;
8488;SDS011;4281;45.772;12.852;2023-04-03T15:34:46;4.63;;;0.93;;
8488;SDS011;4281;45.772;12.852;2023-04-03T15:37:14;0.80;;;0.70;;
8488;SDS011;4281;45.772;12.852;2023-04-03T15:39:42;2.07;;;0.87;;